createdAt,value
2023-02-07T00:00:57.781Z,4.38
2023-02-07T00:03:02.762Z,4.55
2023-02-07T00:05:11.918Z,4.82
2023-02-07T00:07:17.255Z,4.45
2023-02-07T00:09:22.312Z,4.15
2023-02-07T00:11:28.448Z,4.10
2023-02-07T00:13:33.695Z,4.07
2023-02-07T00:15:38.970Z,5.70
2023-02-07T00:17:44.344Z,5.18
2023-02-07T00:19:52.266Z,5.45
2023-02-07T00:22:00.177Z,6.22
2023-02-07T00:26:11.257Z,5.57
2023-02-07T00:28:17.221Z,5.53
2023-02-07T00:30:22.526Z,5.38
2023-02-07T00:32:29.956Z,4.90
2023-02-07T00:34:36.493Z,5.30
2023-02-07T00:38:53.136Z,4.43
2023-02-07T00:40:59.209Z,4.95
2023-02-07T00:43:04.168Z,5.47
2023-02-07T00:45:11.167Z,5.05
2023-02-07T00:47:16.110Z,4.80
2023-02-07T00:49:21.829Z,4.70
2023-02-07T00:51:27.345Z,4.50
2023-02-07T00:53:33.057Z,5.13
2023-02-07T00:55:42.186Z,5.97
2023-02-07T00:57:47.106Z,4.70
2023-02-07T00:59:53.568Z,5.78
2023-02-07T01:01:58.952Z,5.28
2023-02-07T01:04:05.346Z,5.70
2023-02-07T01:06:12.289Z,7.00
2023-02-07T01:08:19.852Z,6.15
2023-02-07T01:10:24.907Z,5.75
2023-02-07T01:12:32.946Z,5.90
2023-02-07T01:16:42.988Z,6.22
2023-02-07T01:18:50.480Z,6.13
2023-02-07T01:20:55.802Z,7.35
2023-02-07T01:23:00.811Z,6.72
2023-02-07T01:25:06.069Z,5.53
2023-02-07T01:27:11.101Z,6.28
2023-02-07T01:29:19.476Z,8.68
2023-02-07T01:33:30.438Z,6.65
2023-02-07T01:35:35.611Z,8.35
2023-02-07T01:37:40.906Z,6.80
2023-02-07T01:39:45.870Z,7.53
2023-02-07T01:41:51.446Z,8.27
2023-02-07T01:44:00.857Z,6.93
2023-02-07T01:46:08.745Z,7.82
2023-02-07T01:48:20.064Z,8.90
2023-02-07T01:50:25.806Z,7.45
2023-02-07T01:52:42.279Z,8.05
2023-02-07T01:54:51.696Z,7.55
2023-02-07T01:57:00.628Z,7.60
2023-02-07T01:59:09.051Z,9.55
2023-02-07T02:01:27.887Z,9.40
2023-02-07T02:03:32.849Z,10.05
2023-02-07T02:05:39.912Z,10.35
2023-02-07T02:07:46.207Z,10.20
2023-02-07T02:09:51.382Z,10.23
2023-02-07T02:12:19.428Z,9.38
2023-02-07T02:14:43.311Z,9.27
2023-02-07T02:17:01.693Z,9.65
2023-02-07T02:19:53.926Z,8.88
2023-02-07T02:22:37.341Z,9.32
2023-02-07T02:25:32.224Z,10.07
2023-02-07T02:28:03.972Z,9.57
2023-02-07T02:30:49.851Z,11.80
2023-02-07T02:33:29.870Z,11.10
2023-02-07T02:35:43.547Z,10.60
2023-02-07T02:37:58.684Z,10.25
2023-02-07T02:40:10.607Z,10.82
2023-02-07T02:42:26.117Z,10.25
2023-02-07T02:44:38.366Z,10.18
2023-02-07T02:46:44.956Z,10.45
2023-02-07T02:48:54.907Z,14.63
2023-02-07T02:51:00.429Z,23.02
2023-02-07T02:53:05.624Z,29.92
2023-02-07T02:55:13.050Z,24.08
2023-02-07T02:57:47.113Z,20.08
2023-02-07T03:00:14.009Z,19.10
2023-02-07T03:02:32.586Z,19.38
2023-02-07T03:05:12.513Z,15.63
2023-02-07T03:07:40.932Z,14.57
2023-02-07T03:09:57.457Z,15.73
2023-02-07T03:12:18.494Z,15.57
2023-02-07T03:14:31.679Z,17.55
2023-02-07T03:16:44.082Z,16.65
2023-02-07T03:18:57.502Z,17.27
2023-02-07T03:21:13.223Z,15.38
2023-02-07T03:23:20.110Z,15.00
2023-02-07T03:25:27.489Z,13.45
2023-02-07T03:27:34.399Z,15.50
2023-02-07T03:29:46.659Z,13.25
2023-02-07T03:31:58.926Z,14.15
2023-02-07T03:34:11.593Z,12.80
2023-02-07T03:36:25.327Z,16.05
2023-02-07T03:38:30.719Z,16.48
2023-02-07T03:40:44.077Z,15.38
2023-02-07T03:42:53.747Z,18.77
2023-02-07T03:45:02.195Z,16.42
2023-02-07T03:47:08.326Z,12.63
2023-02-07T03:49:16.878Z,14.60
2023-02-07T03:51:25.049Z,16.70
2023-02-07T03:55:36.937Z,18.50
2023-02-07T03:57:42.489Z,16.75
2023-02-07T03:59:47.439Z,20.65
2023-02-07T04:01:52.398Z,18.88
2023-02-07T04:03:58.123Z,20.20
2023-02-07T04:06:03.041Z,18.92
2023-02-07T04:08:10.681Z,19.35
2023-02-07T04:12:21.062Z,19.05
2023-02-07T04:14:26.346Z,18.83
2023-02-07T04:16:31.763Z,16.77
2023-02-07T04:18:37.561Z,19.80
2023-02-07T04:20:42.445Z,18.73
2023-02-07T04:22:47.848Z,18.55
2023-02-07T04:24:55.727Z,20.90
2023-02-07T04:29:06.707Z,18.52
2023-02-07T04:31:11.940Z,19.38
2023-02-07T04:33:20.907Z,22.42
2023-02-07T04:35:25.818Z,19.23
2023-02-07T04:37:31.201Z,20.35
2023-02-07T04:39:36.964Z,21.10
2023-02-07T04:41:44.504Z,19.20
2023-02-07T04:45:55.277Z,21.20
2023-02-07T04:48:00.276Z,19.98
2023-02-07T04:50:05.324Z,22.55
2023-02-07T04:52:10.908Z,20.17
2023-02-07T04:54:15.903Z,17.92
2023-02-07T04:56:21.963Z,18.52
2023-02-07T04:58:29.854Z,19.65
2023-02-07T05:00:35.691Z,19.95
2023-02-07T05:02:40.615Z,18.23
2023-02-07T05:04:45.541Z,20.27
2023-02-07T05:06:51.102Z,18.08
2023-02-07T05:08:56.014Z,18.35
2023-02-07T05:11:01.546Z,20.42
2023-02-07T05:13:07.524Z,20.83
2023-02-07T05:15:16.369Z,23.13
2023-02-07T05:17:21.311Z,22.13
2023-02-07T05:19:26.241Z,21.55
2023-02-07T05:21:31.761Z,28.25
2023-02-07T05:23:36.691Z,27.20
2023-02-07T05:25:44.149Z,21.70
2023-02-07T05:27:49.208Z,25.75
2023-02-07T05:29:54.565Z,26.08
2023-02-07T05:32:14.537Z,18.90
2023-02-07T05:34:20.338Z,22.15
2023-02-07T05:36:25.262Z,26.63
2023-02-07T05:38:30.658Z,27.52
2023-02-07T05:40:36.651Z,25.48
2023-02-07T05:42:41.710Z,24.08
2023-02-07T05:44:47.157Z,22.60
2023-02-07T05:46:52.740Z,20.35
2023-02-07T05:49:00.343Z,20.90
2023-02-07T05:51:05.274Z,22.58
2023-02-07T05:53:13.256Z,21.20
2023-02-07T05:55:19.666Z,20.92
2023-02-07T05:57:24.782Z,19.73
2023-02-07T05:59:30.087Z,21.17
2023-02-07T06:01:37.355Z,19.13
2023-02-07T06:03:42.481Z,20.48
2023-02-07T06:05:50.359Z,18.10
2023-02-07T06:07:55.848Z,20.65
2023-02-07T06:10:00.787Z,22.90
2023-02-07T06:12:06.537Z,21.58
2023-02-07T06:14:11.507Z,20.95
2023-02-07T06:16:16.970Z,20.85
2023-02-07T06:18:21.893Z,20.85
2023-02-07T06:20:26.849Z,19.88
2023-02-07T06:22:34.825Z,19.40
2023-02-07T06:26:46.822Z,19.98
2023-02-07T06:28:52.031Z,22.25
2023-02-07T06:30:57.080Z,19.17
2023-02-07T06:33:02.056Z,20.50
2023-02-07T06:35:09.975Z,20.23
2023-02-07T06:39:22.959Z,19.73
2023-02-07T06:41:28.094Z,21.10
2023-02-07T06:43:33.593Z,23.13
2023-02-07T06:45:41.667Z,21.15
2023-02-07T06:47:47.749Z,21.35
2023-02-07T06:49:53.067Z,22.05
2023-02-07T06:51:58.022Z,19.15
2023-02-07T06:54:08.102Z,21.17
2023-02-07T06:56:18.628Z,18.40
2023-02-07T06:58:24.231Z,21.98
2023-02-07T07:00:30.126Z,19.92
2023-02-07T07:02:35.244Z,20.73
2023-02-07T07:04:40.897Z,18.23
2023-02-07T07:06:46.195Z,19.27
2023-02-07T07:08:52.244Z,18.30
2023-02-07T07:10:57.809Z,17.80
2023-02-07T07:13:05.408Z,20.92
2023-02-07T07:15:12.204Z,19.90
2023-02-07T07:17:17.469Z,22.27
2023-02-07T07:19:22.414Z,25.83
2023-02-07T07:21:28.153Z,21.65
2023-02-07T07:23:33.324Z,26.90
2023-02-07T07:25:39.088Z,24.65
2023-02-07T07:27:44.557Z,24.40
2023-02-07T07:29:52.120Z,26.00
2023-02-07T07:34:02.718Z,25.17
2023-02-07T07:36:09.962Z,28.20
2023-02-07T07:38:15.528Z,30.63
2023-02-07T07:40:20.980Z,27.55
2023-02-07T07:42:26.355Z,26.77
2023-02-07T07:44:46.110Z,26.20
2023-02-07T07:46:53.986Z,25.17
2023-02-07T07:51:03.719Z,23.33
2023-02-07T07:53:09.082Z,21.05
2023-02-07T07:55:15.806Z,19.20
2023-02-07T07:57:21.364Z,20.52
2023-02-07T07:59:26.717Z,20.70
2023-02-07T08:01:31.654Z,19.27
2023-02-07T08:03:39.837Z,19.13
2023-02-07T08:05:46.359Z,19.83
2023-02-07T08:07:52.063Z,20.55
2023-02-07T08:09:56.964Z,20.00
2023-02-07T08:12:01.972Z,21.83
2023-02-07T08:14:07.459Z,22.17
2023-02-07T08:16:12.651Z,24.38
2023-02-07T08:18:18.483Z,20.98
2023-02-07T08:20:26.491Z,43.78
2023-02-07T08:22:31.864Z,35.47
2023-02-07T08:24:37.287Z,28.50
2023-02-07T08:26:42.576Z,26.90
2023-02-07T08:28:49.092Z,22.85
2023-02-07T08:30:54.017Z,23.80
2023-02-07T08:32:58.946Z,23.77
2023-02-07T08:35:04.344Z,62.17
2023-02-07T08:37:13.178Z,29.88
2023-02-07T08:39:18.754Z,25.55
2023-02-07T08:41:23.715Z,36.20
2023-02-07T08:43:29.380Z,25.65
2023-02-07T08:45:34.444Z,24.35
2023-02-07T08:47:39.964Z,26.05
2023-02-07T08:49:45.406Z,38.72
2023-02-07T08:51:50.456Z,27.52
2023-02-07T08:53:59.093Z,69.97
2023-02-07T08:56:04.111Z,72.75
2023-02-07T08:58:09.293Z,32.63
2023-02-07T09:00:16.674Z,26.40
2023-02-07T09:02:21.716Z,22.38
2023-02-07T09:04:27.154Z,24.63
2023-02-07T09:06:32.416Z,25.13
2023-02-07T09:08:37.892Z,23.25
2023-02-07T09:10:47.528Z,22.98
2023-02-07T09:12:52.557Z,22.38
2023-02-07T09:14:57.492Z,21.63
2023-02-07T09:17:02.457Z,24.95
2023-02-07T09:19:10.095Z,25.42
2023-02-07T09:21:15.405Z,24.38
2023-02-07T09:23:20.339Z,23.77
2023-02-07T09:25:25.528Z,22.58
2023-02-07T09:27:33.074Z,19.00
2023-02-07T09:29:38.257Z,17.92
2023-02-07T09:31:44.288Z,19.25
2023-02-07T09:33:49.260Z,18.83
2023-02-07T09:35:55.236Z,21.70
2023-02-07T09:38:00.241Z,18.80
2023-02-07T09:40:05.526Z,21.48
2023-02-07T09:42:27.380Z,20.42
2023-02-07T09:44:52.130Z,17.73
2023-02-07T09:47:05.817Z,21.05
2023-02-07T09:49:19.773Z,21.30
2023-02-07T09:51:26.978Z,17.48
2023-02-07T09:53:43.067Z,19.70
2023-02-07T09:55:54.899Z,19.92
2023-02-07T09:58:06.073Z,20.30
2023-02-07T10:00:26.123Z,19.73
2023-02-07T10:02:36.940Z,20.23
2023-02-07T10:04:47.276Z,19.38
2023-02-07T10:06:57.681Z,18.50
2023-02-07T10:09:03.881Z,20.80
2023-02-07T10:11:20.473Z,18.52
2023-02-07T10:13:48.553Z,17.80
2023-02-07T10:16:16.618Z,18.10
2023-02-07T10:18:40.894Z,18.02
2023-02-07T10:20:54.839Z,21.88
2023-02-07T10:23:14.578Z,17.20
2023-02-07T10:25:36.972Z,18.52
2023-02-07T10:27:57.592Z,18.02
2023-02-07T10:30:13.718Z,23.20
2023-02-07T10:32:26.075Z,19.50
2023-02-07T10:34:36.670Z,20.58
2023-02-07T10:36:47.975Z,21.17
2023-02-07T10:39:09.474Z,21.30
2023-02-07T10:41:21.320Z,25.55
2023-02-07T10:43:32.890Z,18.55
2023-02-07T10:45:37.876Z,19.48
2023-02-07T10:47:46.208Z,17.55
2023-02-07T10:52:03.003Z,18.23
2023-02-07T10:54:11.314Z,15.57
2023-02-07T10:56:22.850Z,15.73
2023-02-07T10:58:28.606Z,17.70
2023-02-07T11:00:37.268Z,16.67
2023-02-07T11:02:56.410Z,18.02
2023-02-07T11:05:04.179Z,17.90
2023-02-07T11:07:11.006Z,16.00
2023-02-07T11:09:24.753Z,15.90
2023-02-07T11:11:36.786Z,15.52
2023-02-07T11:13:51.974Z,15.25
2023-02-07T11:16:04.203Z,17.70
2023-02-07T11:18:45.629Z,17.80
2023-02-07T11:20:56.361Z,16.52
2023-02-07T11:23:02.047Z,14.98
2023-02-07T11:25:10.074Z,15.45
2023-02-07T11:27:19.019Z,18.33
2023-02-07T11:29:25.924Z,16.50
2023-02-07T11:31:35.793Z,15.77
2023-02-07T11:33:44.035Z,18.10
2023-02-07T11:36:05.997Z,16.40
2023-02-07T11:38:17.409Z,13.32
2023-02-07T11:40:31.250Z,15.25
2023-02-07T11:42:38.742Z,14.68
2023-02-07T11:44:47.773Z,13.13
2023-02-07T11:46:53.808Z,16.15
2023-02-07T11:49:02.462Z,15.68
2023-02-07T11:51:13.044Z,17.50
2023-02-07T11:53:27.303Z,17.40
2023-02-07T11:55:37.975Z,15.95
2023-02-07T11:57:43.949Z,13.95
2023-02-07T11:59:52.433Z,16.73
2023-02-07T12:02:03.936Z,13.93
2023-02-07T12:04:20.511Z,14.00
2023-02-07T12:06:29.549Z,13.45
2023-02-07T12:08:38.978Z,15.35
2023-02-07T12:10:50.968Z,14.30
2023-02-07T12:13:03.279Z,16.90
2023-02-07T12:15:17.742Z,41.35
2023-02-07T12:17:33.299Z,39.75
2023-02-07T12:19:51.910Z,22.35
2023-02-07T12:22:04.822Z,15.10
2023-02-07T12:24:19.560Z,14.02
2023-02-07T12:26:28.627Z,13.85
2023-02-07T12:28:44.864Z,13.75
2023-02-07T12:30:56.324Z,15.65
2023-02-07T12:33:13.154Z,14.55
2023-02-07T12:35:29.936Z,16.03
2023-02-07T12:37:49.100Z,12.23
2023-02-07T12:40:02.643Z,14.55
2023-02-07T12:42:26.361Z,15.07
2023-02-07T12:44:38.513Z,14.98
2023-02-07T12:46:55.763Z,13.05
2023-02-07T12:49:35.954Z,8.38
2023-02-07T12:51:59.710Z,11.35
2023-02-07T12:54:23.642Z,12.57
2023-02-07T12:56:45.847Z,12.05
2023-02-07T12:59:02.290Z,13.05
2023-02-07T13:01:16.090Z,12.05
2023-02-07T13:03:45.024Z,9.02
2023-02-07T13:06:14.319Z,10.68
2023-02-07T13:08:34.896Z,10.30
2023-02-07T13:10:51.513Z,10.65
2023-02-07T13:13:03.435Z,10.80
2023-02-07T13:15:21.418Z,15.27
2023-02-07T13:17:48.829Z,12.45
2023-02-07T13:22:08.819Z,11.68
2023-02-07T13:24:19.998Z,12.10
2023-02-07T13:26:27.458Z,11.70
2023-02-07T13:28:42.905Z,10.77
2023-02-07T13:30:50.222Z,9.35
2023-02-07T13:32:55.894Z,9.93
2023-02-07T13:35:07.053Z,10.82
2023-02-07T13:37:17.630Z,9.07
2023-02-07T13:39:42.096Z,9.40
2023-02-07T13:42:02.183Z,8.05
2023-02-07T13:44:20.402Z,9.32
2023-02-07T13:46:55.757Z,8.90
2023-02-07T13:49:06.688Z,9.23
2023-02-07T13:51:24.368Z,8.43
2023-02-07T13:53:43.540Z,8.27
2023-02-07T13:55:52.254Z,8.18
2023-02-07T13:58:11.359Z,8.80
2023-02-07T14:00:24.161Z,8.32
2023-02-07T14:02:31.995Z,8.98
2023-02-07T14:04:52.756Z,8.23
2023-02-07T14:07:11.973Z,8.95
2023-02-07T14:09:26.484Z,8.95
2023-02-07T14:11:44.688Z,10.13
2023-02-07T14:13:49.755Z,9.48
2023-02-07T14:16:03.233Z,9.48
2023-02-07T14:18:29.968Z,9.30
2023-02-07T14:20:53.170Z,7.82
2023-02-07T14:23:18.948Z,10.10
2023-02-07T14:25:27.413Z,14.35
2023-02-07T14:27:37.481Z,13.00
2023-02-07T14:29:55.351Z,8.23
2023-02-07T14:32:04.088Z,7.32
2023-02-07T14:34:18.303Z,9.73
2023-02-07T14:36:31.814Z,12.98
2023-02-07T14:38:41.275Z,15.40
2023-02-07T14:41:11.116Z,13.07
2023-02-07T14:43:26.296Z,10.20
2023-02-07T14:45:34.326Z,8.73
2023-02-07T14:47:40.863Z,10.73
2023-02-07T14:49:51.121Z,9.57
2023-02-07T14:52:00.699Z,10.95
2023-02-07T14:54:11.244Z,10.25
2023-02-07T14:56:33.018Z,8.88
2023-02-07T14:58:46.395Z,10.30
2023-02-07T15:00:56.112Z,12.02
2023-02-07T15:03:06.181Z,10.77
2023-02-07T15:05:25.477Z,7.68
2023-02-07T15:07:30.371Z,9.43
2023-02-07T15:09:38.116Z,10.38
2023-02-07T15:11:43.096Z,11.32
2023-02-07T15:13:51.803Z,10.70
2023-02-07T15:16:01.951Z,9.40
2023-02-07T15:18:07.510Z,10.25
2023-02-07T15:20:18.621Z,8.15
2023-02-07T15:22:29.762Z,9.13
2023-02-07T15:24:51.045Z,10.30
2023-02-07T15:27:00.746Z,12.23
2023-02-07T15:29:20.982Z,9.82
2023-02-07T15:31:25.981Z,10.65
2023-02-07T15:33:36.812Z,10.52
2023-02-07T15:35:42.430Z,9.88
2023-02-07T15:37:48.779Z,12.07
2023-02-07T15:39:56.078Z,11.30
2023-02-07T15:42:01.538Z,10.68
2023-02-07T15:44:21.364Z,12.35
2023-02-07T15:46:26.299Z,10.15
2023-02-07T15:48:31.793Z,9.27
2023-02-07T15:50:38.705Z,10.80
2023-02-07T15:52:48.319Z,12.85
2023-02-07T15:54:56.189Z,9.93
2023-02-07T15:59:19.492Z,10.97
2023-02-07T16:01:29.950Z,10.95
2023-02-07T16:03:39.652Z,14.82
2023-02-07T16:05:45.302Z,11.10
2023-02-07T16:07:50.390Z,10.98
2023-02-07T16:09:55.417Z,32.00
2023-02-07T16:12:00.716Z,11.25
2023-02-07T16:14:17.043Z,11.82
2023-02-07T16:16:27.565Z,15.00
2023-02-07T16:18:41.717Z,11.75
2023-02-07T16:20:46.717Z,11.02
2023-02-07T16:22:53.424Z,11.80
2023-02-07T16:24:58.679Z,11.93
2023-02-07T16:27:03.891Z,16.23
2023-02-07T16:29:09.412Z,11.98
2023-02-07T16:31:17.854Z,11.02
2023-02-07T16:33:23.711Z,11.68
2023-02-07T16:35:30.407Z,11.20
2023-02-07T16:37:36.585Z,11.20
2023-02-07T16:39:41.597Z,12.32
2023-02-07T16:41:51.337Z,12.77
2023-02-07T16:43:58.846Z,11.70
2023-02-07T16:46:04.449Z,10.93
2023-02-07T16:48:17.580Z,13.35
2023-02-07T16:50:25.458Z,11.45
2023-02-07T16:52:30.396Z,14.25
2023-02-07T16:54:35.797Z,16.77
2023-02-07T16:56:41.585Z,12.07
2023-02-07T16:58:47.078Z,13.68
2023-02-07T17:00:52.046Z,16.90
2023-02-07T17:02:57.906Z,13.63
2023-02-07T17:05:07.043Z,15.05
2023-02-07T17:07:13.565Z,15.93
2023-02-07T17:11:29.362Z,13.20
2023-02-07T17:13:34.904Z,11.87
2023-02-07T17:15:41.302Z,16.45
2023-02-07T17:17:46.706Z,13.77
2023-02-07T17:19:51.687Z,16.73
2023-02-07T17:21:59.719Z,16.15
2023-02-07T17:26:23.116Z,13.55
2023-02-07T17:28:29.382Z,14.95
2023-02-07T17:30:41.635Z,17.55
2023-02-07T17:32:47.539Z,16.92
2023-02-07T17:34:52.529Z,15.38
2023-02-07T17:37:00.092Z,14.98
2023-02-07T17:41:13.529Z,15.73
2023-02-07T17:43:18.482Z,18.52
2023-02-07T17:45:23.616Z,13.60
2023-02-07T17:47:29.008Z,15.45
2023-02-07T17:49:36.194Z,16.45
2023-02-07T17:51:42.271Z,16.70
2023-02-07T17:53:50.067Z,14.82
2023-02-07T17:55:55.377Z,15.73
2023-02-07T17:58:02.483Z,17.25
2023-02-07T18:00:09.493Z,18.75
2023-02-07T18:02:17.631Z,17.85
2023-02-07T18:04:22.607Z,20.20
2023-02-07T18:06:30.645Z,16.75
2023-02-07T18:08:35.631Z,17.20
2023-02-07T18:10:43.846Z,14.20
2023-02-07T18:12:49.400Z,20.15
2023-02-07T18:14:56.744Z,16.35
2023-02-07T18:17:01.732Z,15.15
2023-02-07T18:19:06.780Z,13.43
2023-02-07T18:21:13.676Z,16.50
2023-02-07T18:23:18.972Z,13.40
2023-02-07T18:25:24.477Z,13.75
2023-02-07T18:27:32.042Z,18.30
2023-02-07T18:29:37.573Z,15.07
2023-02-07T18:31:42.621Z,18.77
2023-02-07T18:33:50.279Z,15.65
2023-02-07T18:38:04.498Z,16.73
2023-02-07T18:40:13.268Z,15.65
2023-02-07T18:42:20.721Z,16.83
2023-02-07T18:44:28.919Z,19.33
2023-02-07T18:46:34.460Z,24.73
2023-02-07T18:48:39.915Z,26.20
2023-02-07T18:50:46.914Z,23.52
2023-02-07T18:52:52.096Z,22.27
2023-02-07T18:55:00.327Z,19.58
2023-02-07T18:59:10.674Z,13.68
2023-02-07T19:01:22.971Z,15.73
2023-02-07T19:03:27.921Z,17.17
2023-02-07T19:05:33.207Z,18.60
2023-02-07T19:07:38.224Z,17.55
2023-02-07T19:09:43.159Z,11.80
2023-02-07T19:11:48.276Z,14.75
2023-02-07T19:13:55.466Z,15.00
2023-02-07T19:16:06.445Z,15.63
2023-02-07T19:18:15.010Z,13.93
2023-02-07T19:20:20.915Z,14.77
2023-02-07T19:22:35.271Z,14.73
2023-02-07T19:24:42.143Z,16.58
2023-02-07T19:26:47.963Z,19.65
2023-02-07T19:28:54.902Z,13.85
2023-02-07T19:31:00.030Z,17.87
2023-02-07T19:33:05.022Z,15.70
2023-02-07T19:35:13.408Z,16.25
2023-02-07T19:37:18.966Z,18.45
2023-02-07T19:39:24.592Z,21.70
2023-02-07T19:41:31.856Z,15.70
2023-02-07T19:43:37.264Z,14.63
2023-02-07T19:45:42.310Z,14.70
2023-02-07T19:47:48.140Z,13.70
2023-02-07T19:49:53.342Z,14.18
2023-02-07T19:52:01.641Z,17.02
2023-02-07T19:54:07.334Z,17.10
2023-02-07T19:56:16.721Z,17.92
2023-02-07T19:58:22.043Z,17.95
2023-02-07T20:00:29.488Z,17.15
2023-02-07T20:02:35.301Z,17.05
2023-02-07T20:04:40.400Z,14.98
2023-02-07T20:06:45.591Z,17.58
2023-02-07T20:08:53.727Z,17.55
2023-02-07T20:10:58.674Z,18.02
2023-02-07T20:13:03.570Z,20.67
2023-02-07T20:15:09.675Z,17.08
2023-02-07T20:17:14.904Z,22.58
2023-02-07T20:19:20.483Z,17.85
2023-02-07T20:21:30.858Z,19.70
2023-02-07T20:23:38.649Z,14.68
2023-02-07T20:25:46.566Z,17.17
2023-02-07T20:27:51.875Z,17.85
2023-02-07T20:29:56.978Z,16.92
2023-02-07T20:32:01.984Z,18.25
2023-02-07T20:34:07.310Z,16.48
2023-02-07T20:36:14.528Z,18.13
2023-02-07T20:38:20.097Z,17.13
2023-02-07T20:40:25.359Z,14.88
2023-02-07T20:42:34.536Z,15.90
2023-02-07T20:44:40.083Z,20.00
2023-02-07T20:46:47.291Z,17.92
2023-02-07T20:48:52.946Z,23.75
2023-02-07T20:50:59.998Z,19.38
2023-02-07T20:53:08.671Z,20.25
2023-02-07T20:55:13.621Z,20.48
2023-02-07T20:57:19.175Z,16.67
2023-02-07T20:59:30.089Z,20.23
2023-02-07T21:01:37.530Z,19.00
2023-02-07T21:03:45.833Z,19.65
2023-02-07T21:05:51.649Z,21.42
2023-02-07T21:07:57.336Z,18.83
2023-02-07T21:10:02.499Z,16.17
2023-02-07T21:12:09.072Z,18.77
2023-02-07T21:14:18.358Z,21.27
2023-02-07T21:16:26.256Z,17.00
2023-02-07T21:20:36.843Z,19.80
2023-02-07T21:22:41.774Z,24.00
2023-02-07T21:24:47.135Z,19.88
2023-02-07T21:26:54.023Z,26.77
2023-02-07T21:29:04.663Z,22.13
2023-02-07T21:31:14.022Z,23.95
2023-02-07T21:33:21.654Z,32.35
2023-02-07T21:35:26.598Z,30.10
2023-02-07T21:37:32.430Z,37.67
2023-02-07T21:39:37.395Z,34.28
2023-02-07T21:41:45.449Z,34.97
2023-02-07T21:43:51.179Z,31.08
2023-02-07T21:45:56.846Z,31.85
2023-02-07T21:48:02.156Z,24.15
2023-02-07T21:50:10.296Z,20.33
2023-02-07T21:52:16.483Z,17.20
2023-02-07T21:54:21.901Z,14.98
2023-02-07T21:56:30.382Z,15.70
2023-02-07T21:58:36.144Z,15.98
2023-02-07T22:00:41.421Z,15.65
2023-02-07T22:02:47.359Z,15.00
2023-02-07T22:04:52.412Z,16.58
2023-02-07T22:07:00.719Z,18.85
2023-02-07T22:11:14.469Z,17.58
2023-02-07T22:13:19.391Z,18.08
2023-02-07T22:15:24.364Z,14.00
2023-02-07T22:17:29.427Z,14.00
2023-02-07T22:19:34.376Z,13.88
2023-02-07T22:21:40.956Z,14.23
2023-02-07T22:23:48.731Z,15.45
2023-02-07T22:25:55.071Z,14.63
2023-02-07T22:28:00.689Z,20.02
2023-02-07T22:30:05.759Z,17.85
2023-02-07T22:32:10.993Z,21.80
2023-02-07T22:34:17.634Z,19.35
2023-02-07T22:36:25.180Z,22.45
2023-02-07T22:40:41.213Z,20.65
2023-02-07T22:42:46.684Z,22.05
2023-02-07T22:44:51.930Z,21.50
2023-02-07T22:46:57.261Z,17.27
2023-02-07T22:49:02.347Z,16.00
2023-02-07T22:51:15.656Z,16.50
2023-02-07T22:53:20.603Z,17.85
2023-02-07T22:55:25.950Z,23.40
2023-02-07T22:57:34.245Z,19.40
2023-02-07T23:01:45.988Z,16.40
2023-02-07T23:03:51.880Z,16.98
2023-02-07T23:05:57.357Z,16.02
2023-02-07T23:08:02.344Z,17.13
2023-02-07T23:10:10.611Z,16.70
2023-02-07T23:12:16.423Z,19.05
2023-02-07T23:14:24.577Z,14.38
2023-02-07T23:16:32.292Z,15.98
2023-02-07T23:18:37.607Z,16.23
2023-02-07T23:20:47.464Z,18.65
2023-02-07T23:22:52.434Z,20.05
2023-02-07T23:24:58.546Z,14.38
2023-02-07T23:27:04.706Z,15.27
2023-02-07T23:29:09.859Z,13.93
2023-02-07T23:31:20.326Z,18.83
2023-02-07T23:33:25.378Z,16.38
2023-02-07T23:35:30.397Z,11.43
2023-02-07T23:37:35.750Z,12.05
2023-02-07T23:39:40.687Z,17.58
2023-02-07T23:41:45.763Z,14.38
2023-02-07T23:43:54.660Z,12.80
2023-02-07T23:45:59.654Z,16.20
2023-02-07T23:48:07.692Z,12.57
2023-02-07T23:50:13.045Z,18.00
2023-02-07T23:52:18.404Z,15.65
2023-02-07T23:54:23.504Z,20.75
2023-02-07T23:56:28.525Z,19.63
2023-02-07T23:58:35.479Z,20.90
